createdAt,value
2022-09-26T00:01:34.592Z,599.31915
2022-09-26T00:06:36.409Z,620.92308
2022-09-26T00:11:37.987Z,628.44444
2022-09-26T00:16:39.650Z,628.44444
2022-09-26T00:21:41.131Z,620.92308
2022-09-26T00:26:42.536Z,620.92308
2022-09-26T00:31:44.134Z,606.36559
2022-09-26T00:36:45.575Z,628.44444
2022-09-26T00:41:47.047Z,620.92308
2022-09-26T00:46:48.700Z,620.92308
2022-09-26T00:51:50.190Z,636.13483
2022-09-26T00:56:51.667Z,606.36559
2022-09-26T01:01:53.390Z,592.42105
2022-09-26T01:06:55.139Z,572.57143
2022-09-26T01:11:56.815Z,566.22222
2022-09-26T01:16:59.627Z,566.22222
2022-09-26T01:22:01.382Z,566.22222
2022-09-26T01:27:03.223Z,547.92157
2022-09-26T01:32:04.907Z,547.92157
2022-09-26T01:37:06.704Z,547.92157
2022-09-26T01:42:08.617Z,542.05825
2022-09-26T01:47:10.832Z,547.92157
2022-09-26T01:52:12.462Z,553.90099
2022-09-26T01:57:14.104Z,542.05825
2022-09-26T02:02:15.917Z,566.22222
2022-09-26T02:07:17.614Z,553.90099
2022-09-26T02:12:19.371Z,542.05825
2022-09-26T02:17:21.980Z,536.30769
2022-09-26T02:27:24.116Z,560
2022-09-26T02:32:25.914Z,547.92157
2022-09-26T02:37:27.626Z,560
2022-09-26T02:42:29.353Z,536.30769
2022-09-26T02:47:32.146Z,514.37037
2022-09-26T02:52:33.868Z,536.30769
2022-09-26T02:57:35.601Z,542.05825
2022-09-26T03:02:37.361Z,547.92157
2022-09-26T03:07:38.814Z,440.77419
2022-09-26T03:12:40.464Z,599.31915
2022-09-26T03:22:52.706Z,704.49383
2022-09-26T03:27:54.417Z,754.52632
2022-09-26T03:32:56.059Z,754.52632
2022-09-26T03:37:57.502Z,765.33333
2022-09-26T03:42:59.093Z,754.52632
2022-09-26T03:48:00.646Z,733.74359
2022-09-26T03:53:02.415Z,572.57143
2022-09-26T03:58:03.865Z,787.83562
2022-09-26T04:03:05.625Z,765.33333
2022-09-26T04:08:07.249Z,723.74684
2022-09-26T04:13:08.715Z,686.16867
2022-09-26T04:18:10.217Z,677.33333
2022-09-26T04:23:12.015Z,547.92157
2022-09-26T04:28:13.492Z,530.66667
2022-09-26T04:33:15.120Z,536.30769
2022-09-26T04:38:16.642Z,519.70093
2022-09-26T04:43:18.077Z,509.13761
2022-09-26T04:48:19.548Z,509.13761
2022-09-26T04:53:21.527Z,530.66667
2022-09-26T04:58:23.003Z,553.90099
2022-09-26T05:03:24.545Z,553.90099
2022-09-26T05:08:26.429Z,519.70093
2022-09-26T05:13:27.985Z,470.49573
2022-09-26T05:18:29.737Z,494
2022-09-26T05:23:31.424Z,525.13208
2022-09-26T05:28:32.940Z,530.66667
2022-09-26T05:33:34.754Z,484.35088
2022-09-26T05:38:36.310Z,504
2022-09-26T05:43:38.038Z,479.65217
2022-09-26T05:48:39.494Z,448.91803
2022-09-26T05:53:41.205Z,489.13274
2022-09-26T05:58:42.777Z,494
2022-09-26T06:03:44.222Z,470.49573
2022-09-26T06:08:45.820Z,525.13208
2022-09-26T06:13:47.298Z,514.37037
2022-09-26T06:18:48.739Z,494
2022-09-26T06:23:50.466Z,547.92157
2022-09-26T06:28:51.929Z,530.66667
2022-09-26T06:33:53.382Z,525.13208
2022-09-26T06:38:55.017Z,553.90099
2022-09-26T06:43:56.670Z,536.30769
2022-09-26T06:48:58.161Z,542.05825
2022-09-26T06:54:00.133Z,566.22222
2022-09-26T06:59:01.847Z,776.43243
2022-09-26T07:04:03.593Z,799.55556
2022-09-26T07:09:08.700Z,776.43243
2022-09-26T07:14:13.753Z,824
2022-09-26T07:19:15.562Z,836.75362
2022-09-26T07:24:17.723Z,824
2022-09-26T07:29:19.517Z,863.40299
2022-09-26T07:34:21.267Z,921.77778
2022-09-26T07:39:23.132Z,824
2022-09-26T07:49:56.670Z,811.60563
2022-09-26T07:54:58.885Z,877.33333
2022-09-26T08:00:00.509Z,970.66667
2022-09-26T08:05:02.291Z,877.33333
2022-09-26T08:10:04.005Z,906.5
2022-09-26T08:15:05.779Z,863.40299
2022-09-26T08:20:07.567Z,891.69231
2022-09-26T08:25:09.654Z,849.88235
2022-09-26T08:30:11.306Z,849.88235
2022-09-26T08:35:12.752Z,863.40299
2022-09-26T08:40:14.205Z,921.77778
2022-09-26T08:45:15.803Z,877.33333
2022-09-26T08:50:17.239Z,891.69231
2022-09-26T08:55:19.018Z,877.33333
2022-09-26T09:00:20.680Z,937.54839
2022-09-26T09:05:22.077Z,970.66667
2022-09-26T09:10:23.862Z,1024.70175
2022-09-26T09:15:26.461Z,970.66667
2022-09-26T09:20:28.245Z,1084.74074
2022-09-26T09:25:29.985Z,1024.70175
2022-09-26T09:30:31.455Z,988.0678
2022-09-26T09:35:32.995Z,1024.70175
2022-09-26T09:40:34.686Z,937.54839
2022-09-26T09:45:36.362Z,988.0678
2022-09-26T09:50:37.804Z,1084.74074
2022-09-26T09:55:39.525Z,1024.70175
2022-09-26T10:00:41.024Z,1024.70175
2022-09-26T10:05:42.579Z,937.54839
2022-09-26T10:10:44.037Z,1044
2022-09-26T10:15:45.824Z,1084.74074
2022-09-26T10:20:47.595Z,1106.26415
2022-09-26T10:25:50.292Z,1024.70175
2022-09-26T10:30:52.065Z,1106.26415
2022-09-26T10:35:53.851Z,1151.84314
2022-09-26T10:40:55.599Z,1106.26415
2022-09-26T10:45:57.357Z,1128.61538
2022-09-26T10:50:58.973Z,1024.70175
2022-09-26T10:56:01.285Z,1201.14286
2022-09-26T11:01:02.837Z,1064
2022-09-26T11:06:04.310Z,1044
2022-09-26T11:11:05.791Z,1084.74074
2022-09-26T11:16:07.707Z,1044
2022-09-26T11:21:23.268Z,953.83607
2022-09-26T11:26:31.147Z,1024.70175
2022-09-26T11:31:32.879Z,1064
2022-09-26T11:36:34.683Z,1024.70175
2022-09-26T11:41:36.749Z,1044
2022-09-26T11:46:38.551Z,1106.26415
2022-09-26T11:51:40.051Z,1106.26415
2022-09-26T11:56:42.168Z,1084.74074
2022-09-26T12:01:43.746Z,1201.14286
2022-09-26T12:06:45.227Z,1201.14286
2022-09-26T12:11:46.782Z,1176
2022-09-26T12:16:48.245Z,1176
2022-09-26T12:21:49.951Z,1151.84314
2022-09-26T12:26:51.932Z,1227.33333
2022-09-26T12:31:53.483Z,1227.33333
2022-09-26T12:36:55.347Z,1151.84314
2022-09-26T12:41:57.109Z,1176
2022-09-26T12:46:59.139Z,1064
2022-09-26T12:52:00.804Z,1283.13043
2022-09-26T12:57:02.735Z,1176
2022-09-26T13:02:04.538Z,1227.33333
2022-09-26T13:07:18.874Z,1283.13043
2022-09-26T13:12:21.728Z,1024.70175
2022-09-26T13:17:23.500Z,1151.84314
2022-09-26T13:22:25.230Z,1176
2022-09-26T13:27:27.919Z,1312.88889
2022-09-26T13:32:29.696Z,1376.55814
2022-09-26T13:37:31.545Z,1312.88889
2022-09-26T13:42:33.340Z,1376.55814
2022-09-26T13:47:35.078Z,1283.13043
2022-09-26T13:52:36.747Z,1376.55814
2022-09-26T13:57:38.748Z,1151.84314
2022-09-26T14:02:40.270Z,1283.13043
2022-09-26T14:07:41.896Z,1227.33333
2022-09-26T14:12:43.469Z,1254.6383
2022-09-26T14:17:44.911Z,1227.33333
2022-09-26T14:22:46.490Z,1254.6383
2022-09-26T14:27:48.383Z,1176
2022-09-26T14:32:49.821Z,1201.14286
2022-09-26T14:37:51.273Z,1201.14286
2022-09-26T14:42:52.900Z,1151.84314
2022-09-26T14:47:54.353Z,1128.61538
2022-09-26T14:52:55.818Z,1128.61538
2022-09-26T14:57:57.550Z,1176
2022-09-26T15:03:01.304Z,1227.33333
2022-09-26T15:08:03.274Z,1151.84314
2022-09-26T15:13:05.273Z,1128.61538
2022-09-26T15:18:07.029Z,1176
2022-09-26T15:23:08.782Z,1064
2022-09-26T15:28:10.584Z,1283.13043
2022-09-26T15:33:16.126Z,1044
2022-09-26T15:38:17.942Z,1084.74074
2022-09-26T15:43:19.395Z,1044
2022-09-26T15:48:20.926Z,891.69231
2022-09-26T15:53:22.428Z,906.5
2022-09-26T15:58:24.153Z,787.83562
2022-09-26T16:03:25.657Z,953.83607
2022-09-26T16:08:27.413Z,906.5
2022-09-26T16:13:29.097Z,906.5
2022-09-26T16:18:30.883Z,714
2022-09-26T16:23:32.535Z,733.74359
2022-09-26T16:28:34.629Z,723.74684
2022-09-26T16:33:36.373Z,723.74684
2022-09-26T16:38:38.207Z,695.21951
2022-09-26T16:43:40.010Z,704.49383
2022-09-26T16:48:41.735Z,695.21951
2022-09-26T16:53:43.190Z,668.70588
2022-09-26T16:58:44.798Z,677.33333
2022-09-26T17:03:46.629Z,660.27907
2022-09-26T17:08:48.196Z,668.70588
2022-09-26T17:13:49.599Z,677.33333
2022-09-26T17:18:51.001Z,677.33333
2022-09-26T17:23:52.849Z,660.27907
2022-09-26T17:28:54.822Z,644
2022-09-26T17:33:56.568Z,620.92308
2022-09-26T17:38:58.321Z,606.36559
2022-09-26T17:44:00.298Z,613.56522
2022-09-26T17:49:02.198Z,606.36559
2022-09-26T17:54:03.978Z,628.44444
2022-09-26T17:59:05.808Z,613.56522
2022-09-26T18:04:07.588Z,592.42105
2022-09-26T18:09:09.682Z,613.56522
2022-09-26T18:14:11.578Z,599.31915
2022-09-26T18:19:13.323Z,579.05155
2022-09-26T18:24:19.271Z,560
2022-09-26T18:34:31.943Z,599.31915
2022-09-26T18:39:33.391Z,636.13483
2022-09-26T18:44:35.274Z,599.31915
2022-09-26T18:49:36.810Z,613.56522
2022-09-26T18:54:38.347Z,599.31915
2022-09-26T18:59:39.813Z,613.56522
2022-09-26T19:04:41.491Z,652.04598
2022-09-26T19:09:43.075Z,636.13483
2022-09-26T19:14:44.637Z,620.92308
2022-09-26T19:19:46.218Z,613.56522
2022-09-26T19:24:47.895Z,613.56522
2022-09-26T19:29:49.350Z,613.56522
2022-09-26T19:34:50.975Z,636.13483
2022-09-26T19:39:52.468Z,613.56522
2022-09-26T19:44:53.960Z,606.36559
2022-09-26T19:49:55.424Z,585.66667
2022-09-26T19:54:56.874Z,572.57143
2022-09-26T19:59:58.319Z,579.05155
2022-09-26T20:05:00.040Z,566.22222
2022-09-26T20:10:01.700Z,566.22222
2022-09-26T20:15:03.176Z,547.92157
2022-09-26T20:20:04.709Z,530.66667
2022-09-26T20:25:06.240Z,514.37037
2022-09-26T20:30:07.770Z,498.95495
2022-09-26T20:35:09.360Z,494
2022-09-26T20:40:10.906Z,489.13274
2022-09-26T20:45:12.345Z,489.13274
2022-09-26T20:50:13.888Z,489.13274
2022-09-26T20:55:15.326Z,479.65217
2022-09-26T21:00:17.154Z,466.0339
2022-09-26T21:05:18.896Z,453.09091
2022-09-26T21:10:20.540Z,448.91803
2022-09-26T21:15:21.990Z,436.8
2022-09-26T21:20:23.518Z,410.66667
2022-09-26T21:25:25.072Z,393.63504
2022-09-26T21:30:26.659Z,387.16547
2022-09-26T21:35:28.825Z,374.76923
2022-09-26T21:40:30.389Z,357.42282
2022-09-26T21:45:31.994Z,349.26316
2022-09-26T21:50:33.597Z,344
2022-09-26T21:55:35.086Z,344
2022-09-26T22:00:36.545Z,341.41935
2022-09-26T22:05:39.052Z,341.41935
2022-09-26T22:10:40.509Z,344
2022-09-26T22:15:42.173Z,346.61438
2022-09-26T22:20:43.646Z,344
2022-09-26T22:25:45.084Z,329
2022-09-26T22:30:46.665Z,326.6087
2022-09-26T22:35:48.355Z,336.35669
2022-09-26T22:40:50.159Z,336.35669
2022-09-26T22:45:51.704Z,341.41935
2022-09-26T22:50:53.200Z,349.26316
2022-09-26T22:55:54.612Z,371.77778
2022-09-26T23:00:56.096Z,396.94118
2022-09-26T23:05:58.256Z,403.70149
2022-09-26T23:10:59.701Z,410.66667
2022-09-26T23:16:01.247Z,425.25
2022-09-26T23:21:02.929Z,417.84615
2022-09-26T23:26:04.381Z,393.63504
2022-09-26T23:31:05.966Z,417.84615
2022-09-26T23:36:07.688Z,444.81301
2022-09-26T23:41:09.163Z,457.33333
2022-09-26T23:46:10.831Z,461.64706
2022-09-26T23:51:12.323Z,466.0339
2022-09-26T23:56:13.882Z,466.0339
